createdAt,value
2019-04-07T00:01:23.263Z,9.30
2019-04-07T00:03:53.268Z,9.20
2019-04-07T00:08:53.514Z,9.10
2019-04-07T00:11:23.441Z,9.10
2019-04-07T00:13:53.058Z,9.00
2019-04-07T00:16:22.588Z,9.00
2019-04-07T00:18:53.519Z,9.70
2019-04-07T00:21:23.133Z,9.10
2019-04-07T00:23:53.220Z,9.00
2019-04-07T00:26:22.970Z,9.00
2019-04-07T00:28:53.154Z,8.90
2019-04-07T00:36:22.968Z,8.90
2019-04-07T00:38:52.614Z,9.00
2019-04-07T00:43:51.832Z,8.90
2019-04-07T00:46:21.804Z,8.80
2019-04-07T00:48:51.786Z,8.80
2019-04-07T00:51:22.167Z,8.80
2019-04-07T00:53:53.057Z,8.80
2019-04-07T00:56:22.813Z,8.90
2019-04-07T00:58:52.649Z,8.80
2019-04-07T01:01:22.838Z,8.80
2019-04-07T01:03:52.608Z,8.80
2019-04-07T01:06:22.249Z,8.90
2019-04-07T01:08:52.480Z,8.90
2019-04-07T01:11:21.994Z,8.80
2019-04-07T01:13:52.772Z,8.80
2019-04-07T01:16:22.439Z,8.70
2019-04-07T01:23:52.271Z,8.60
2019-04-07T01:28:54.270Z,8.50
2019-04-07T01:31:22.973Z,8.50
2019-04-07T01:33:53.180Z,8.40
2019-04-07T01:36:23.742Z,8.40
2019-04-07T01:41:43.009Z,8.30
2019-04-07T01:55:50.945Z,8.20
2019-04-07T02:01:27.393Z,8.30
2019-04-07T02:04:04.056Z,8.30
2019-04-07T02:09:33.880Z,8.10
2019-04-07T02:12:24.820Z,8.00
2019-04-07T02:15:16.416Z,7.80
2019-04-07T02:17:52.767Z,7.80
2019-04-07T02:21:12.158Z,7.80
2019-04-07T02:26:50.904Z,8.00
2019-04-07T02:32:34.447Z,8.00
2019-04-07T02:35:18.616Z,8.00
2019-04-07T02:43:25.361Z,7.60
2019-04-07T02:46:04.500Z,7.60
2019-04-07T02:54:31.081Z,7.80
2019-04-07T03:00:25.753Z,7.80
2019-04-07T03:03:09.272Z,7.80
2019-04-07T03:06:03.641Z,7.90
2019-04-07T03:11:34.053Z,7.70
2019-04-07T03:14:17.686Z,7.80
2019-04-07T03:22:41.972Z,7.80
2019-04-07T03:28:05.633Z,7.90
2019-04-07T03:31:01.820Z,8.00
2019-04-07T03:36:32.516Z,7.80
2019-04-07T03:39:35.921Z,7.70
2019-04-07T03:42:12.455Z,7.80
2019-04-07T03:44:57.299Z,7.80
2019-04-07T03:50:43.029Z,7.80
2019-04-07T03:53:21.845Z,7.90
2019-04-07T03:56:14.445Z,7.90
2019-04-07T04:01:49.667Z,7.80
2019-04-07T04:04:32.781Z,7.70
2019-04-07T04:07:22.889Z,7.80
2019-04-07T04:09:53.835Z,7.70
2019-04-07T04:13:01.205Z,7.60
2019-04-07T04:18:24.375Z,7.60
2019-04-07T04:23:23.904Z,7.60
2019-04-07T04:28:23.871Z,7.50
2019-04-07T04:33:26.205Z,7.50
2019-04-07T04:35:55.926Z,7.50
2019-04-07T04:38:26.234Z,7.30
2019-04-07T04:40:55.874Z,7.20
2019-04-07T04:43:25.555Z,7.20
2019-04-07T04:45:55.355Z,7.10
2019-04-07T04:48:25.865Z,7.10
2019-04-07T04:50:56.053Z,7.00
2019-04-07T04:55:55.773Z,8.20
2019-04-07T04:58:25.881Z,7.00
2019-04-07T05:05:54.611Z,7.00
2019-04-07T05:08:24.739Z,7.00
2019-04-07T05:10:54.535Z,7.10
2019-04-07T05:13:24.044Z,7.10
2019-04-07T05:20:53.221Z,7.20
2019-04-07T05:23:23.139Z,7.20
2019-04-07T05:28:24.433Z,8.40
2019-04-07T05:33:24.504Z,7.10
2019-04-07T05:40:53.153Z,7.10
2019-04-07T05:43:22.762Z,7.20
2019-04-07T05:45:52.796Z,7.20
2019-04-07T05:48:22.757Z,7.10
2019-04-07T05:50:52.350Z,7.20
2019-04-07T05:53:23.307Z,8.20
2019-04-07T05:56:00.092Z,7.30
2019-04-07T05:58:29.632Z,7.40
2019-04-07T06:01:00.178Z,7.50
2019-04-07T06:13:36.235Z,8.10
2019-04-07T06:16:05.749Z,8.20
2019-04-07T06:21:04.830Z,8.70
2019-04-07T06:35:31.530Z,9.40
2019-04-07T06:38:05.274Z,9.60
2019-04-07T06:40:32.637Z,9.70
2019-04-07T06:43:05.279Z,9.90
2019-04-07T06:48:13.365Z,10.20
2019-04-07T06:50:57.753Z,10.50
2019-04-07T06:53:52.426Z,10.70
2019-04-07T06:56:41.181Z,11.20
2019-04-07T06:59:29.272Z,12.70
2019-04-07T07:02:20.825Z,14.30
2019-04-07T07:05:08.424Z,16.10
2019-04-07T07:07:53.116Z,17.70
2019-04-07T07:10:45.654Z,18.70
2019-04-07T07:13:42.972Z,20.10
2019-04-07T07:16:23.955Z,20.50
2019-04-07T07:22:10.023Z,19.00
2019-04-07T07:24:36.901Z,20.30
2019-04-07T07:27:09.394Z,20.90
2019-04-07T07:29:38.668Z,20.70
2019-04-07T07:32:08.457Z,20.80
2019-04-07T07:34:39.930Z,20.00
2019-04-07T07:39:41.954Z,20.20
2019-04-07T07:42:10.597Z,19.70
2019-04-07T07:47:10.252Z,21.00
2019-04-07T07:52:11.890Z,21.40
2019-04-07T07:54:45.846Z,21.00
2019-04-07T07:57:14.547Z,21.90
2019-04-07T07:59:44.730Z,22.70
2019-04-07T08:02:17.390Z,21.80
2019-04-07T08:04:45.554Z,21.70
2019-04-07T08:07:16.604Z,22.10
2019-04-07T08:09:46.980Z,22.60
2019-04-07T08:12:17.324Z,22.80
2019-04-07T08:17:18.378Z,21.90
2019-04-07T08:19:47.991Z,22.10
2019-04-07T08:22:27.600Z,22.10
2019-04-07T08:24:51.147Z,22.80
2019-04-07T08:29:50.404Z,24.20
2019-04-07T08:32:22.649Z,24.20
2019-04-07T08:34:51.973Z,23.40
2019-04-07T08:37:21.903Z,22.90
2019-04-07T08:39:52.578Z,22.20
2019-04-07T08:42:22.649Z,24.00
2019-04-07T08:44:53.421Z,23.30
2019-04-07T08:47:23.486Z,23.40
2019-04-07T08:52:24.669Z,21.30
2019-04-07T08:54:55.550Z,21.50
2019-04-07T08:57:27.236Z,21.90
2019-04-07T09:02:28.438Z,23.20
2019-04-07T09:04:57.043Z,23.10
2019-04-07T09:09:58.723Z,22.40
2019-04-07T09:12:30.973Z,21.10
2019-04-07T09:17:44.578Z,20.90
2019-04-07T09:20:29.224Z,21.20
2019-04-07T09:23:14.528Z,20.90
2019-04-07T09:28:43.162Z,18.70
2019-04-07T09:34:20.632Z,17.00
2019-04-07T09:37:22.049Z,16.90
2019-04-07T09:40:06.894Z,16.50
2019-04-07T09:43:14.550Z,16.40
2019-04-07T09:51:41.368Z,16.10
2019-04-07T09:54:41.022Z,16.00
2019-04-07T09:57:28.598Z,16.40
2019-04-07T10:00:08.695Z,16.30
2019-04-07T10:03:06.774Z,16.50
2019-04-07T10:06:00.751Z,16.60
2019-04-07T10:08:49.838Z,16.50
2019-04-07T10:11:44.365Z,16.40
2019-04-07T10:14:39.815Z,16.50
2019-04-07T10:17:31.836Z,16.70
2019-04-07T10:20:22.887Z,16.70
2019-04-07T10:23:03.005Z,16.40
2019-04-07T10:25:40.314Z,16.60
2019-04-07T10:28:20.626Z,16.60
2019-04-07T10:31:19.804Z,16.70
2019-04-07T10:34:09.546Z,17.00
2019-04-07T10:42:44.799Z,17.00
2019-04-07T10:45:39.570Z,16.80
2019-04-07T10:48:31.592Z,16.90
2019-04-07T10:51:29.353Z,17.10
2019-04-07T10:54:25.059Z,17.00
2019-04-07T10:57:12.262Z,17.40
2019-04-07T11:03:13.921Z,17.20
2019-04-07T11:06:11.672Z,17.40
2019-04-07T11:09:08.806Z,17.10
2019-04-07T11:11:48.896Z,17.30
2019-04-07T11:14:36.950Z,17.50
2019-04-07T11:26:06.922Z,17.60
2019-04-07T11:29:04.954Z,17.70
2019-04-07T11:31:50.391Z,17.90
2019-04-07T11:37:49.608Z,17.80
2019-04-07T11:40:59.827Z,17.70
2019-04-07T11:43:54.662Z,17.70
2019-04-07T11:46:49.409Z,17.70
2019-04-07T11:49:58.127Z,17.80
2019-04-07T11:52:46.195Z,18.00
2019-04-07T11:55:33.399Z,18.00
2019-04-07T11:58:22.535Z,18.10
2019-04-07T12:04:01.316Z,18.00
2019-04-07T12:09:47.752Z,18.40
2019-04-07T12:18:32.038Z,18.70
2019-04-07T12:21:23.267Z,18.00
2019-04-07T12:27:13.890Z,18.90
2019-04-07T12:30:11.890Z,18.70
2019-04-07T12:35:57.603Z,19.80
2019-04-07T12:38:43.212Z,18.80
2019-04-07T12:41:33.106Z,20.10
2019-04-07T12:47:06.233Z,19.00
2019-04-07T12:50:01.963Z,19.00
2019-04-07T12:52:55.044Z,18.90
2019-04-07T12:55:57.952Z,19.00
2019-04-07T12:58:46.058Z,19.00
2019-04-07T13:07:15.166Z,19.20
2019-04-07T13:10:03.350Z,19.40
2019-04-07T13:12:53.712Z,19.30
2019-04-07T13:15:45.525Z,19.40
2019-04-07T13:18:38.985Z,19.30
2019-04-07T13:24:03.613Z,19.30
2019-04-07T13:26:57.307Z,18.50
2019-04-07T13:29:51.896Z,19.30
2019-04-07T13:40:59.565Z,19.80
2019-04-07T13:43:39.986Z,20.00
2019-04-07T13:46:35.681Z,19.60
2019-04-07T13:49:32.803Z,19.60
2019-04-07T13:52:31.217Z,19.70
2019-04-07T13:55:16.494Z,21.00
2019-04-07T13:58:20.867Z,19.20
2019-04-07T14:01:12.751Z,19.60
2019-04-07T14:09:31.476Z,19.30
2019-04-07T14:12:12.378Z,19.70
2019-04-07T14:15:15.832Z,21.00
2019-04-07T14:17:55.764Z,20.00
2019-04-07T14:23:33.132Z,19.70
2019-04-07T14:26:29.997Z,19.90
2019-04-07T14:29:34.661Z,20.20
2019-04-07T14:32:18.639Z,20.00
2019-04-07T14:35:02.538Z,19.90
2019-04-07T14:37:44.336Z,19.90
2019-04-07T14:40:25.912Z,20.00
2019-04-07T14:46:04.594Z,20.10
2019-04-07T14:48:45.130Z,19.60
2019-04-07T14:51:42.416Z,20.40
2019-04-07T14:54:37.751Z,20.50
2019-04-07T14:57:29.621Z,20.50
2019-04-07T15:00:17.283Z,20.30
2019-04-07T15:02:49.688Z,20.20
2019-04-07T15:05:25.230Z,20.20
2019-04-07T15:08:06.495Z,20.20
2019-04-07T15:13:12.890Z,20.10
2019-04-07T15:18:11.766Z,20.20
2019-04-07T15:20:43.056Z,20.00
2019-04-07T15:23:13.295Z,19.70
2019-04-07T15:25:45.114Z,20.00
2019-04-07T15:28:15.357Z,20.10
2019-04-07T15:30:47.996Z,19.90
2019-04-07T15:35:47.299Z,19.00
2019-04-07T15:40:47.031Z,19.80
2019-04-07T15:45:48.632Z,19.80
2019-04-07T15:48:19.095Z,19.90
2019-04-07T15:50:48.641Z,18.80
2019-04-07T15:53:18.788Z,19.60
2019-04-07T15:55:57.287Z,19.60
2019-04-07T16:03:19.210Z,20.10
2019-04-07T16:13:21.699Z,19.60
2019-04-07T16:15:54.926Z,19.50
2019-04-07T16:18:23.434Z,19.40
2019-04-07T16:25:52.434Z,19.10
2019-04-07T16:30:52.115Z,19.00
2019-04-07T16:33:21.797Z,18.90
2019-04-07T16:35:55.278Z,18.90
2019-04-07T16:40:52.706Z,19.10
2019-04-07T16:45:52.759Z,18.40
2019-04-07T16:53:24.632Z,18.40
2019-04-07T16:55:55.707Z,18.40
2019-04-07T16:58:25.446Z,18.40
2019-04-07T17:03:27.434Z,18.40
2019-04-07T17:05:59.340Z,18.40
2019-04-07T17:08:28.793Z,18.30
2019-04-07T17:11:04.045Z,18.30
2019-04-07T17:13:39.432Z,18.30
2019-04-07T17:18:43.098Z,17.00
2019-04-07T17:21:15.904Z,18.20
2019-04-07T17:23:46.012Z,18.10
2019-04-07T17:28:47.462Z,17.90
2019-04-07T17:36:17.699Z,17.90
2019-04-07T17:39:09.701Z,17.80
2019-04-07T17:41:39.635Z,17.60
2019-04-07T17:44:25.408Z,17.60
2019-04-07T17:49:59.281Z,17.60
2019-04-07T17:52:51.231Z,17.50
2019-04-07T17:58:42.508Z,17.40
2019-04-07T18:01:34.133Z,17.40
2019-04-07T18:07:44.657Z,17.20
2019-04-07T18:10:39.142Z,17.20
2019-04-07T18:13:16.994Z,17.20
2019-04-07T18:16:12.721Z,17.20
2019-04-07T18:18:57.945Z,17.10
2019-04-07T18:30:20.567Z,17.00
2019-04-07T18:33:20.721Z,16.90
2019-04-07T18:39:05.024Z,17.70
2019-04-07T18:50:18.687Z,16.60
2019-04-07T18:53:01.578Z,16.50
2019-04-07T19:04:17.797Z,16.40
2019-04-07T19:07:19.399Z,16.40
2019-04-07T19:10:04.951Z,16.30
2019-04-07T19:12:34.851Z,16.30
2019-04-07T19:18:14.702Z,17.40
2019-04-07T19:27:17.360Z,16.10
2019-04-07T19:29:57.438Z,15.90
2019-04-07T19:32:46.419Z,15.70
2019-04-07T19:35:39.857Z,15.60
2019-04-07T19:38:29.522Z,15.60
2019-04-07T19:41:23.194Z,15.50
2019-04-07T19:44:09.497Z,15.40
2019-04-07T19:47:01.670Z,15.30
2019-04-07T19:52:47.659Z,15.00
2019-04-07T20:01:10.576Z,14.70
2019-04-07T20:04:17.296Z,14.60
2019-04-07T20:07:09.215Z,14.40
2019-04-07T20:10:03.094Z,14.20
2019-04-07T20:12:54.794Z,14.20
2019-04-07T20:18:59.701Z,14.00
2019-04-07T20:27:37.349Z,13.80
2019-04-07T20:36:14.812Z,13.70
2019-04-07T20:39:09.366Z,13.40
2019-04-07T20:42:01.029Z,13.50
2019-04-07T20:44:42.874Z,13.40
2019-04-07T20:53:31.108Z,13.30
2019-04-07T20:56:22.859Z,13.20
2019-04-07T20:59:10.078Z,14.10
2019-04-07T21:04:54.963Z,13.00
2019-04-07T21:15:46.598Z,12.90
2019-04-07T21:24:19.873Z,12.60
2019-04-07T21:35:24.418Z,12.20
2019-04-07T21:38:12.133Z,12.10
2019-04-07T21:41:16.810Z,12.00
2019-04-07T21:44:17.525Z,12.20
2019-04-07T21:47:04.742Z,12.20
2019-04-07T21:49:42.603Z,12.30
2019-04-07T21:52:40.905Z,12.40
2019-04-07T21:58:07.166Z,12.40
2019-04-07T22:00:55.117Z,12.40
2019-04-07T22:06:26.515Z,12.40
2019-04-07T22:09:20.708Z,12.40
2019-04-07T22:11:50.292Z,12.40
2019-04-07T22:16:49.779Z,12.30
2019-04-07T22:21:53.277Z,12.20
2019-04-07T22:26:50.199Z,12.20
2019-04-07T22:29:22.398Z,13.70
2019-04-07T22:34:23.575Z,12.10
2019-04-07T22:36:53.781Z,12.00
2019-04-07T22:39:27.490Z,9.30
2019-04-07T22:41:57.166Z,12.00
2019-04-07T22:44:28.049Z,12.00
2019-04-07T22:46:58.427Z,12.00
2019-04-07T22:49:31.478Z,11.90
2019-04-07T22:54:30.962Z,11.80
2019-04-07T22:57:00.689Z,11.70
2019-04-07T22:59:32.188Z,11.70
2019-04-07T23:02:02.011Z,11.60
2019-04-07T23:07:00.896Z,11.50
2019-04-07T23:09:31.357Z,11.50
2019-04-07T23:12:02.217Z,11.40
2019-04-07T23:14:32.315Z,11.30
2019-04-07T23:17:02.188Z,11.30
2019-04-07T23:22:01.149Z,11.20
2019-04-07T23:27:02.817Z,11.00
2019-04-07T23:29:32.494Z,11.00
2019-04-07T23:32:02.349Z,11.00
2019-04-07T23:37:01.727Z,10.80
2019-04-07T23:39:31.675Z,10.70
2019-04-07T23:42:01.489Z,10.70
2019-04-07T23:54:27.674Z,10.50
2019-04-07T23:56:58.160Z,10.40
2019-04-07T23:59:27.678Z,10.40
